Ballonweer?

Available data for EHGG from the past 2 hours
GRONINGEN/EELDE
Metar
EHGG 100655Z AUTO 21005KT 9999 OVC049 00/M01 Q1022 NOSIG

06:55 UTC

Wind: 210° 5kt

Visibility: 9999 m

Sky: OVC 4900 ft

Temp: 0 deg C / 32 deg F

Dewpoint: -1 deg C / 30.2 deg F

Pressure: 1022 hPa

TAF
TAF EHGG 100513Z 1006/1112 24005KT 9999 SCT030 BECMG 1008/1011 20012G22KT BECMG 1015/1018 19022G32KT TEMPO 1101/1106 4000 RA RADZ SCT008 BKN012 BECMG 1103/1106 22010KT PROB30 TEMPO 1106/1112 SCT004 BKN008

Buienradar (tot 2 uur vooruit)

 

KNMI weerbulletin kleine luchtvaart

Klik hier om het weerbulletin te openen in een nieuw tabblad.